Marlboro, Vermont
Current Conditions -  °F | °C
As of 6:15 AM on Monday 22 Dec 2014 (Local Time) from KEEN Reporting Station
Overcast Overcast  
Wind Chill: 30°   Ceiling: 2200
Heat Index: 30°   Visibility: 7mi
Dew Point: 30°   Wind: 0mph
Humidity: 100%   Direction: NA
Pressure: 30.36"   Gusts: NA
Location:  42.86°N, 72.73°W
Report Text: KEEN 221115Z AUTO 00000KT 7SM OVC022 M01/M01 A3036 RMK AO1
Loading
Personal Weather Stations






























Interactive Weather Map New forecast layout! Learn more

10-Day Weather Forecast

Advertisements
Track Severe Weather on mobile